createdAt,value
2018-11-04T00:00:18.126Z,2.41
2018-11-04T00:01:18.102Z,2.44
2018-11-04T00:02:18.099Z,2.38
2018-11-04T00:03:18.081Z,2.40
2018-11-04T00:04:18.070Z,2.41
2018-11-04T00:05:18.071Z,2.38
2018-11-04T00:06:18.050Z,2.41
2018-11-04T00:07:18.038Z,2.40
2018-11-04T00:08:18.027Z,2.37
2018-11-04T00:09:18.017Z,2.45
2018-11-04T00:10:18.020Z,2.38
2018-11-04T00:11:17.995Z,2.35
2018-11-04T00:12:17.987Z,2.41
2018-11-04T00:13:18.124Z,2.35
2018-11-04T00:14:17.964Z,2.37
2018-11-04T00:15:17.966Z,2.41
2018-11-04T00:16:17.943Z,2.38
2018-11-04T00:17:17.935Z,2.37
2018-11-04T00:18:17.926Z,2.41
2018-11-04T00:19:17.912Z,2.26
2018-11-04T00:20:17.941Z,2.46
2018-11-04T00:21:17.902Z,2.44
2018-11-04T00:22:17.878Z,2.44
2018-11-04T00:23:17.867Z,2.40
2018-11-04T00:24:17.857Z,2.40
2018-11-04T00:25:17.856Z,2.35
2018-11-04T00:26:17.834Z,2.33
2018-11-04T00:27:17.873Z,2.30
2018-11-04T00:28:17.813Z,2.41
2018-11-04T00:29:17.803Z,2.38
2018-11-04T00:30:17.806Z,2.33
2018-11-04T00:31:17.796Z,2.38
2018-11-04T00:32:17.775Z,2.41
2018-11-04T00:33:17.760Z,2.33
2018-11-04T00:34:17.749Z,2.35
2018-11-04T00:35:17.750Z,2.33
2018-11-04T00:36:17.730Z,2.35
2018-11-04T00:37:17.717Z,2.33
2018-11-04T00:38:17.706Z,2.33
2018-11-04T00:39:17.696Z,2.30
2018-11-04T00:40:17.697Z,2.38
2018-11-04T00:41:17.686Z,2.31
2018-11-04T00:42:17.664Z,2.33
2018-11-04T00:43:17.653Z,2.33
2018-11-04T00:44:17.643Z,2.34
2018-11-04T00:45:17.717Z,2.35
2018-11-04T00:46:17.633Z,2.38
2018-11-04T00:47:17.616Z,2.35
2018-11-04T00:48:17.601Z,2.33
2018-11-04T00:49:17.589Z,2.38
2018-11-04T00:50:17.578Z,2.35
2018-11-04T00:51:17.589Z,2.33
2018-11-04T00:52:17.571Z,2.30
2018-11-04T00:53:17.552Z,2.38
2018-11-04T00:54:17.534Z,2.38
2018-11-04T00:55:17.524Z,2.37
2018-11-04T00:56:17.516Z,2.33
2018-11-04T00:57:17.525Z,2.35
2018-11-04T00:58:17.491Z,2.33
2018-11-04T00:59:17.482Z,2.35
2018-11-04T01:00:17.493Z,2.33
2018-11-04T01:01:17.459Z,2.33
2018-11-04T01:02:17.449Z,2.27
2018-11-04T01:03:17.454Z,2.33
2018-11-04T01:04:17.431Z,2.26
2018-11-04T01:05:17.421Z,2.35
2018-11-04T01:06:17.409Z,2.38
2018-11-04T01:07:17.409Z,2.35
2018-11-04T01:08:17.398Z,2.34
2018-11-04T01:09:17.475Z,2.34
2018-11-04T01:10:17.364Z,2.38
2018-11-04T01:11:17.356Z,2.35
2018-11-04T01:12:17.579Z,2.37
2018-11-04T01:13:17.352Z,2.35
2018-11-04T01:14:17.323Z,2.51
2018-11-04T01:15:17.310Z,2.33
2018-11-04T01:16:17.302Z,2.35
2018-11-04T01:17:17.292Z,2.33
2018-11-04T01:18:17.291Z,2.38
2018-11-04T01:19:17.270Z,2.27
2018-11-04T01:20:17.259Z,2.44
2018-11-04T01:21:17.247Z,2.34
2018-11-04T01:22:17.238Z,2.40
2018-11-04T01:23:17.238Z,2.33
2018-11-04T01:24:17.279Z,2.40
2018-11-04T01:25:17.211Z,2.33
2018-11-04T01:26:17.196Z,2.34
2018-11-04T01:27:17.182Z,2.35
2018-11-04T01:28:17.199Z,2.35
2018-11-04T01:29:17.201Z,2.38
2018-11-04T01:30:17.175Z,2.33
2018-11-04T01:31:17.145Z,2.31
2018-11-04T01:32:17.130Z,2.37
2018-11-04T01:33:17.128Z,2.33
2018-11-04T01:34:17.122Z,2.35
2018-11-04T01:35:17.113Z,2.30
2018-11-04T01:36:17.090Z,2.38
2018-11-04T01:37:17.078Z,2.28
2018-11-04T01:38:17.068Z,2.31
2018-11-04T01:39:17.068Z,2.33
2018-11-04T01:40:17.061Z,2.33
2018-11-04T01:41:17.037Z,2.37
2018-11-04T01:42:17.024Z,2.38
2018-11-04T01:43:17.016Z,2.33
2018-11-04T01:44:17.017Z,2.31
2018-11-04T01:45:16.992Z,2.33
2018-11-04T01:46:16.982Z,2.41
2018-11-04T01:47:16.974Z,2.34
2018-11-04T01:48:16.962Z,2.37
2018-11-04T01:49:16.966Z,2.31
2018-11-04T01:50:16.951Z,2.44
2018-11-04T01:51:16.930Z,2.37
2018-11-04T01:52:16.917Z,2.31
2018-11-04T01:53:16.908Z,2.37
2018-11-04T01:54:17.072Z,2.30
2018-11-04T01:55:16.885Z,2.37
2018-11-04T01:56:16.874Z,2.41
2018-11-04T01:57:16.864Z,2.40
2018-11-04T01:58:16.854Z,2.22
2018-11-04T01:59:16.855Z,2.26
2018-11-04T02:00:16.834Z,2.38
2018-11-04T02:01:16.824Z,2.40
2018-11-04T02:02:16.810Z,2.31
2018-11-04T02:03:16.805Z,2.27
2018-11-04T02:04:16.804Z,2.35
2018-11-04T02:05:16.795Z,2.35
2018-11-04T02:06:16.772Z,2.28
2018-11-04T02:07:16.760Z,2.40
2018-11-04T02:08:16.746Z,2.40
2018-11-04T02:09:16.738Z,2.40
2018-11-04T02:10:17.064Z,2.27
2018-11-04T02:11:16.716Z,2.35
2018-11-04T02:12:16.708Z,2.37
2018-11-04T02:13:16.698Z,2.28
2018-11-04T02:14:16.682Z,2.35
2018-11-04T02:15:16.686Z,2.31
2018-11-04T02:16:16.673Z,2.41
2018-11-04T02:17:16.650Z,2.35
2018-11-04T02:18:16.639Z,2.38
2018-11-04T02:19:16.628Z,2.35
2018-11-04T02:20:16.630Z,2.30
2018-11-04T02:21:16.606Z,2.38
2018-11-04T02:22:16.601Z,2.27
2018-11-04T02:23:16.586Z,2.44
2018-11-04T02:24:16.575Z,2.35
2018-11-04T02:25:16.592Z,2.37
2018-11-04T02:26:16.554Z,2.37
2018-11-04T02:27:16.546Z,2.35
2018-11-04T02:28:16.534Z,2.37
2018-11-04T02:29:16.523Z,2.45
2018-11-04T02:30:16.513Z,2.35
2018-11-04T02:31:16.514Z,2.40
2018-11-04T02:32:16.489Z,2.40
2018-11-04T02:33:16.481Z,2.40
2018-11-04T02:34:16.470Z,2.35
2018-11-04T02:35:16.459Z,2.38
2018-11-04T02:36:16.573Z,2.44
2018-11-04T02:37:16.436Z,2.45
2018-11-04T02:38:16.428Z,2.35
2018-11-04T02:39:16.415Z,2.44
2018-11-04T02:40:16.404Z,2.35
2018-11-04T02:41:16.395Z,2.30
2018-11-04T02:42:16.400Z,2.37
2018-11-04T02:43:16.375Z,2.37
2018-11-04T02:44:16.362Z,2.34
2018-11-04T02:45:16.351Z,2.40
2018-11-04T02:46:16.341Z,2.37
2018-11-04T02:47:16.352Z,2.40
2018-11-04T02:48:16.321Z,2.37
2018-11-04T02:49:16.309Z,2.37
2018-11-04T02:50:16.323Z,2.38
2018-11-04T02:51:16.289Z,2.41
2018-11-04T02:52:16.297Z,2.45
2018-11-04T02:53:16.264Z,2.38
2018-11-04T02:54:16.253Z,2.34
2018-11-04T02:55:16.244Z,2.38
2018-11-04T02:56:16.232Z,2.44
2018-11-04T02:57:16.222Z,2.38
2018-11-04T02:58:16.222Z,2.40
2018-11-04T02:59:16.202Z,2.46
2018-11-04T03:00:16.191Z,2.46
2018-11-04T03:01:16.182Z,2.40
2018-11-04T03:02:16.169Z,2.34
2018-11-04T03:03:16.561Z,2.37
2018-11-04T03:04:16.147Z,2.38
2018-11-04T03:05:16.137Z,2.40
2018-11-04T03:06:16.128Z,2.41
2018-11-04T03:07:16.116Z,2.40
2018-11-04T03:08:16.115Z,2.40
2018-11-04T03:09:16.096Z,2.38
2018-11-04T03:10:16.179Z,2.44
2018-11-04T03:11:16.072Z,2.38
2018-11-04T03:12:16.062Z,2.37
2018-11-04T03:13:16.068Z,2.40
2018-11-04T03:14:16.040Z,2.44
2018-11-04T03:15:16.030Z,2.38
2018-11-04T03:16:16.019Z,2.37
2018-11-04T03:17:16.008Z,2.40
2018-11-04T03:18:15.999Z,2.40
2018-11-04T03:19:16.000Z,2.45
2018-11-04T03:20:15.986Z,2.40
2018-11-04T03:21:15.966Z,2.37
2018-11-04T03:22:15.955Z,2.41
2018-11-04T03:23:15.955Z,2.41
2018-11-04T03:24:15.949Z,2.41
2018-11-04T03:25:15.923Z,2.46
2018-11-04T03:26:15.919Z,2.41
2018-11-04T03:27:15.901Z,2.44
2018-11-04T03:28:15.894Z,2.41
2018-11-04T03:29:15.891Z,2.46
2018-11-04T03:30:15.871Z,2.38
2018-11-04T03:31:15.859Z,2.41
2018-11-04T03:32:15.852Z,2.40
2018-11-04T03:33:15.836Z,2.41
2018-11-04T03:34:15.839Z,2.38
2018-11-04T03:35:15.816Z,2.41
2018-11-04T03:36:15.805Z,2.48
2018-11-04T03:37:15.796Z,2.46
2018-11-04T03:38:15.785Z,2.41
2018-11-04T03:39:15.784Z,2.41
2018-11-04T03:40:15.773Z,2.45
2018-11-04T03:41:15.756Z,2.41
2018-11-04T03:42:15.741Z,2.45
2018-11-04T03:43:15.729Z,2.44
2018-11-04T03:44:15.733Z,2.46
2018-11-04T03:45:15.721Z,2.41
2018-11-04T03:46:15.698Z,2.44
2018-11-04T03:47:15.688Z,2.46
2018-11-04T03:48:15.677Z,2.37
2018-11-04T03:49:15.691Z,2.44
2018-11-04T03:50:15.656Z,2.44
2018-11-04T03:51:15.645Z,2.41
2018-11-04T03:52:15.634Z,2.40
2018-11-04T03:53:15.623Z,2.44
2018-11-04T03:54:15.611Z,2.45
2018-11-04T03:55:15.614Z,2.40
2018-11-04T03:56:15.590Z,2.33
2018-11-04T03:57:15.580Z,2.40
2018-11-04T03:58:15.569Z,2.41
2018-11-04T03:59:15.559Z,2.44
2018-11-04T04:00:15.571Z,2.38
2018-11-04T04:01:15.541Z,2.44
2018-11-04T04:02:15.527Z,2.40
2018-11-04T04:03:15.518Z,2.48
2018-11-04T04:04:15.505Z,2.40
2018-11-04T04:05:15.495Z,2.41
2018-11-04T04:06:15.496Z,2.46
2018-11-04T04:07:15.473Z,2.44
2018-11-04T04:08:15.466Z,2.44
2018-11-04T04:09:15.452Z,2.40
2018-11-04T04:10:15.443Z,2.40
2018-11-04T04:11:15.444Z,2.37
2018-11-04T04:12:15.420Z,2.41
2018-11-04T04:13:15.419Z,2.44
2018-11-04T04:14:15.397Z,2.40
2018-11-04T04:15:15.388Z,2.41
2018-11-04T04:16:15.390Z,2.45
2018-11-04T04:17:15.368Z,2.44
2018-11-04T04:18:15.356Z,2.44
2018-11-04T04:19:15.345Z,2.44
2018-11-04T04:20:15.334Z,2.45
2018-11-04T04:21:15.337Z,2.48
2018-11-04T04:22:15.317Z,2.41
2018-11-04T04:23:15.301Z,2.44
2018-11-04T04:24:15.292Z,2.40
2018-11-04T04:25:15.285Z,2.44
2018-11-04T04:26:15.281Z,2.38
2018-11-04T04:27:15.260Z,2.45
2018-11-04T04:28:15.249Z,2.34
2018-11-04T04:29:15.238Z,2.41
2018-11-04T04:30:15.228Z,2.41
2018-11-04T04:31:15.229Z,2.38
2018-11-04T04:32:15.208Z,2.40
2018-11-04T04:33:15.195Z,2.46
2018-11-04T04:34:15.184Z,2.45
2018-11-04T04:35:15.173Z,2.44
2018-11-04T04:36:15.173Z,2.51
2018-11-04T04:37:15.164Z,2.48
2018-11-04T04:38:15.140Z,2.48
2018-11-04T04:39:15.130Z,2.44
2018-11-04T04:40:15.120Z,2.40
2018-11-04T04:41:15.109Z,2.46
2018-11-04T04:42:15.111Z,2.44
2018-11-04T04:43:15.087Z,2.49
2018-11-04T04:44:15.076Z,2.45
2018-11-04T04:45:15.068Z,2.55
2018-11-04T04:46:15.055Z,2.51
2018-11-04T04:47:15.058Z,2.55
2018-11-04T04:48:15.036Z,2.45
2018-11-04T04:49:15.024Z,2.56
2018-11-04T04:50:15.013Z,2.51
2018-11-04T04:51:15.002Z,2.51
2018-11-04T04:52:15.002Z,2.49
2018-11-04T04:53:15.010Z,2.56
2018-11-04T04:54:14.970Z,2.46
2018-11-04T04:55:14.957Z,2.51
2018-11-04T04:56:14.949Z,2.51
2018-11-04T04:57:14.961Z,2.58
2018-11-04T04:58:14.927Z,2.46
2018-11-04T04:59:14.919Z,2.52
2018-11-04T05:00:14.950Z,2.51
2018-11-04T05:01:14.898Z,2.52
2018-11-04T05:02:14.887Z,2.48
2018-11-04T05:03:14.885Z,2.51
2018-11-04T05:04:14.861Z,2.52
2018-11-04T05:05:14.853Z,2.52
2018-11-04T05:06:14.843Z,2.58
2018-11-04T05:07:14.831Z,2.48
2018-11-04T05:08:14.834Z,2.48
2018-11-04T05:09:14.808Z,2.58
2018-11-04T05:10:14.799Z,2.53
2018-11-04T05:11:14.789Z,2.59
2018-11-04T05:12:14.778Z,2.53
2018-11-04T05:13:14.777Z,2.51
2018-11-04T05:14:14.759Z,2.58
2018-11-04T05:15:14.745Z,2.59
2018-11-04T05:16:14.738Z,2.51
2018-11-04T05:17:14.724Z,2.56
2018-11-04T05:18:14.725Z,2.63
2018-11-04T05:19:14.712Z,2.58
2018-11-04T05:20:14.693Z,2.63
2018-11-04T05:21:14.680Z,2.67
2018-11-04T05:22:14.672Z,2.66
2018-11-04T05:23:14.658Z,2.53
2018-11-04T05:24:14.660Z,2.58
2018-11-04T05:25:14.637Z,2.52
2018-11-04T05:26:14.629Z,2.52
2018-11-04T05:27:14.617Z,2.63
2018-11-04T05:28:14.607Z,2.64
2018-11-04T05:29:15.048Z,2.59
2018-11-04T05:30:14.585Z,2.67
2018-11-04T05:31:14.575Z,2.67
2018-11-04T05:32:14.562Z,2.61
2018-11-04T05:33:14.553Z,2.63
2018-11-04T05:34:14.552Z,2.71
2018-11-04T05:35:14.530Z,2.70
2018-11-04T05:36:14.523Z,2.69
2018-11-04T05:37:14.509Z,2.64
2018-11-04T05:38:14.503Z,2.73
2018-11-04T05:39:14.546Z,2.67
2018-11-04T05:40:14.476Z,2.66
2018-11-04T05:41:14.470Z,2.69
2018-11-04T05:42:14.454Z,2.70
2018-11-04T05:43:14.444Z,2.74
2018-11-04T05:44:14.445Z,2.67
2018-11-04T05:45:14.435Z,2.64
2018-11-04T05:46:14.414Z,2.69
2018-11-04T05:47:14.401Z,2.71
2018-11-04T05:48:14.391Z,2.64
2018-11-04T05:49:14.408Z,2.77
2018-11-04T05:50:14.369Z,2.76
2018-11-04T05:51:14.367Z,2.77
2018-11-04T05:52:14.348Z,2.74
2018-11-04T05:53:14.342Z,2.76
2018-11-04T05:54:14.327Z,2.76
2018-11-04T05:55:14.341Z,2.73
2018-11-04T05:56:14.305Z,2.71
2018-11-04T05:57:14.300Z,2.74
2018-11-04T05:58:14.283Z,2.79
2018-11-04T05:59:14.275Z,2.85
2018-11-04T06:00:14.263Z,2.77
2018-11-04T06:01:14.264Z,2.84
2018-11-04T06:02:14.240Z,2.81
2018-11-04T06:03:14.233Z,2.74
2018-11-04T06:04:14.230Z,2.89
2018-11-04T06:05:14.210Z,2.76
2018-11-04T06:06:14.198Z,2.79
2018-11-04T06:07:14.186Z,2.79
2018-11-04T06:08:14.176Z,2.84
2018-11-04T06:09:14.176Z,2.88
2018-11-04T06:10:14.155Z,2.88
2018-11-04T06:11:14.157Z,2.89
2018-11-04T06:12:14.149Z,2.94
2018-11-04T06:13:14.132Z,2.87
2018-11-04T06:14:14.113Z,2.88
2018-11-04T06:15:14.122Z,2.98
2018-11-04T06:16:14.091Z,2.89
2018-11-04T06:17:14.104Z,2.98
2018-11-04T06:18:14.075Z,2.97
2018-11-04T06:19:14.071Z,2.89
2018-11-04T06:20:14.051Z,2.95
2018-11-04T06:21:14.050Z,2.98
2018-11-04T06:22:14.028Z,2.97
2018-11-04T06:23:14.018Z,2.98
2018-11-04T06:24:14.010Z,3.00
2018-11-04T06:25:13.995Z,2.98
2018-11-04T06:26:13.999Z,3.03
2018-11-04T06:27:13.978Z,3.03
2018-11-04T06:28:13.965Z,2.97
2018-11-04T06:29:13.959Z,3.02
2018-11-04T06:30:13.942Z,3.00
2018-11-04T06:31:13.958Z,2.97
2018-11-04T06:32:13.920Z,2.98
2018-11-04T06:33:13.910Z,3.06
2018-11-04T06:34:13.900Z,3.00
2018-11-04T06:35:13.887Z,3.07
2018-11-04T06:36:14.045Z,3.10
2018-11-04T06:37:13.880Z,3.09
2018-11-04T06:38:13.861Z,3.13
2018-11-04T06:39:13.846Z,3.12
2018-11-04T06:40:13.834Z,3.07
2018-11-04T06:41:14.024Z,3.12
2018-11-04T06:42:13.819Z,3.15
2018-11-04T06:43:13.815Z,3.21
2018-11-04T06:44:13.793Z,3.12
2018-11-04T06:45:13.781Z,3.13
2018-11-04T06:46:13.771Z,3.12
2018-11-04T06:47:13.876Z,3.15
2018-11-04T06:48:13.780Z,3.12
2018-11-04T06:49:13.740Z,3.23
2018-11-04T06:50:13.737Z,3.23
2018-11-04T06:51:13.717Z,3.21
2018-11-04T06:52:13.706Z,3.15
2018-11-04T06:53:13.697Z,3.15
2018-11-04T06:54:13.705Z,3.33
2018-11-04T06:55:13.677Z,3.28
2018-11-04T06:56:13.664Z,3.30
2018-11-04T06:57:13.654Z,3.24
2018-11-04T06:58:13.672Z,3.27
2018-11-04T06:59:13.632Z,3.28
2018-11-04T07:00:13.621Z,3.31
2018-11-04T07:01:13.612Z,3.34
2018-11-04T07:02:13.600Z,3.34
2018-11-04T07:03:13.591Z,3.40
2018-11-04T07:04:13.591Z,3.28
2018-11-04T07:05:13.568Z,3.40
2018-11-04T07:06:13.558Z,3.39
2018-11-04T07:07:13.547Z,3.33
2018-11-04T07:08:13.546Z,3.42
2018-11-04T07:09:13.543Z,3.36
2018-11-04T07:10:13.519Z,3.42
2018-11-04T07:11:13.505Z,3.36
2018-11-04T07:12:13.493Z,3.36
2018-11-04T07:13:13.486Z,3.39
2018-11-04T07:14:13.492Z,3.46
2018-11-04T07:15:13.476Z,3.46
2018-11-04T07:16:13.452Z,3.46
2018-11-04T07:17:13.441Z,3.52
2018-11-04T07:18:13.432Z,3.53
2018-11-04T07:19:13.419Z,3.50
2018-11-04T07:20:13.420Z,3.54
2018-11-04T07:21:13.400Z,3.62
2018-11-04T07:22:13.387Z,3.53
2018-11-04T07:23:13.377Z,3.49
2018-11-04T07:24:13.367Z,3.57
2018-11-04T07:25:13.368Z,3.58
2018-11-04T07:26:13.346Z,3.58
2018-11-04T07:27:13.333Z,3.61
2018-11-04T07:28:13.324Z,3.47
2018-11-04T07:29:13.325Z,3.67
2018-11-04T07:30:13.313Z,3.61
2018-11-04T07:31:13.293Z,3.58
2018-11-04T07:32:13.394Z,3.64
2018-11-04T07:33:13.272Z,3.58
2018-11-04T07:34:13.261Z,3.58
2018-11-04T07:35:13.261Z,3.60
2018-11-04T07:36:13.239Z,3.67
2018-11-04T07:37:13.235Z,3.65
2018-11-04T07:38:13.219Z,3.67
2018-11-04T07:39:13.210Z,3.79
2018-11-04T07:40:13.538Z,3.68
2018-11-04T07:41:13.186Z,3.75
2018-11-04T07:42:13.176Z,3.70
2018-11-04T07:43:13.167Z,3.64
2018-11-04T07:44:13.232Z,3.72
2018-11-04T07:45:13.163Z,3.80
2018-11-04T07:46:13.132Z,3.62
2018-11-04T07:47:13.123Z,3.79
2018-11-04T07:48:13.112Z,3.72
2018-11-04T07:49:13.101Z,3.82
2018-11-04T07:50:13.094Z,3.79
2018-11-04T07:51:13.092Z,3.76
2018-11-04T07:52:13.068Z,3.85
2018-11-04T07:53:13.061Z,3.90
2018-11-04T07:54:13.046Z,3.82
2018-11-04T07:55:13.036Z,3.88
2018-11-04T07:56:13.038Z,3.83
2018-11-04T07:57:13.017Z,3.82
2018-11-04T07:58:13.003Z,3.89
2018-11-04T07:59:12.995Z,3.90
2018-11-04T08:00:13.155Z,3.97
2018-11-04T08:01:12.995Z,3.96
2018-11-04T08:02:12.960Z,4.00
2018-11-04T08:03:12.952Z,3.98
2018-11-04T08:04:13.028Z,4.01
2018-11-04T08:05:12.929Z,4.01
2018-11-04T08:06:12.917Z,3.97
2018-11-04T08:07:12.920Z,3.98
2018-11-04T08:08:12.897Z,3.96
2018-11-04T08:09:12.889Z,4.06
2018-11-04T08:10:12.877Z,4.07
2018-11-04T08:11:12.865Z,4.01
2018-11-04T08:12:12.869Z,4.10
2018-11-04T08:13:12.842Z,4.07
2018-11-04T08:14:12.838Z,4.14
2018-11-04T08:15:12.825Z,4.12
2018-11-04T08:16:12.825Z,4.08
2018-11-04T08:17:12.814Z,4.15
2018-11-04T08:18:12.791Z,4.18
2018-11-04T08:19:12.779Z,4.16
2018-11-04T08:20:12.769Z,4.22
2018-11-04T08:21:12.821Z,4.22
2018-11-04T08:22:12.758Z,4.24
2018-11-04T08:23:12.739Z,4.19
2018-11-04T08:24:12.727Z,4.26
2018-11-04T08:25:12.715Z,4.34
2018-11-04T08:26:12.705Z,4.32
2018-11-04T08:27:12.718Z,4.29
2018-11-04T08:28:12.685Z,4.33
2018-11-04T08:29:12.673Z,4.37
2018-11-04T08:30:12.664Z,4.32
2018-11-04T08:31:12.652Z,4.42
2018-11-04T08:32:12.662Z,4.36
2018-11-04T08:33:12.633Z,4.42
2018-11-04T08:34:12.619Z,4.42
2018-11-04T08:35:12.606Z,4.47
2018-11-04T08:36:12.599Z,4.46
2018-11-04T08:37:12.592Z,4.42
2018-11-04T08:38:12.588Z,4.46
2018-11-04T08:39:12.565Z,4.46
2018-11-04T08:40:12.647Z,4.50
2018-11-04T08:41:12.545Z,4.46
2018-11-04T08:42:12.535Z,4.57
2018-11-04T08:43:12.536Z,4.54
2018-11-04T08:44:12.513Z,4.58
2018-11-04T08:45:12.504Z,4.58
2018-11-04T08:46:12.490Z,4.57
2018-11-04T08:47:12.479Z,4.62
2018-11-04T08:48:12.482Z,4.67
2018-11-04T08:49:12.461Z,4.64
2018-11-04T08:50:12.448Z,4.69
2018-11-04T08:51:12.437Z,4.70
2018-11-04T08:52:12.427Z,4.76
2018-11-04T08:53:12.429Z,4.75
2018-11-04T08:54:12.405Z,4.76
2018-11-04T08:55:12.394Z,4.76
2018-11-04T08:56:12.384Z,4.79
2018-11-04T08:57:12.373Z,4.77
2018-11-04T08:58:12.374Z,4.80
2018-11-04T08:59:12.533Z,4.83
2018-11-04T09:00:12.450Z,4.89
2018-11-04T09:01:12.332Z,4.92
2018-11-04T09:02:12.322Z,4.95
2018-11-04T09:03:12.309Z,4.91
2018-11-04T09:04:12.308Z,4.94
2018-11-04T09:05:12.290Z,5.01
2018-11-04T09:06:12.274Z,4.99
2018-11-04T09:07:12.264Z,4.98
2018-11-04T09:08:12.259Z,4.92
2018-11-04T09:09:12.264Z,5.07
2018-11-04T09:10:12.234Z,5.04
2018-11-04T09:11:12.221Z,5.09
2018-11-04T09:12:12.212Z,5.13
2018-11-04T09:13:12.205Z,5.12
2018-11-04T09:14:12.259Z,5.09
2018-11-04T09:15:12.179Z,5.12
2018-11-04T09:16:12.170Z,5.25
2018-11-04T09:17:12.161Z,5.20
2018-11-04T09:18:12.153Z,5.22
2018-11-04T09:19:12.148Z,5.20
2018-11-04T09:20:12.125Z,5.28
2018-11-04T09:21:12.128Z,5.28
2018-11-04T09:22:12.190Z,5.27
2018-11-04T09:23:12.093Z,5.32
2018-11-04T09:24:12.102Z,5.34
2018-11-04T09:25:12.072Z,5.37
2018-11-04T09:26:12.065Z,5.40
2018-11-04T09:27:12.051Z,5.45
2018-11-04T09:28:12.038Z,5.43
2018-11-04T09:29:12.122Z,5.46
2018-11-04T09:30:12.018Z,5.45
2018-11-04T09:31:12.007Z,5.55
2018-11-04T09:32:11.997Z,5.56
2018-11-04T09:33:11.988Z,5.56
2018-11-04T09:34:11.977Z,5.52
2018-11-04T09:35:12.067Z,5.55
2018-11-04T09:36:12.123Z,5.57
2018-11-04T09:37:11.952Z,5.63
2018-11-04T09:38:11.941Z,5.59
2018-11-04T09:39:11.935Z,5.73
2018-11-04T09:40:11.924Z,5.64
2018-11-04T09:41:11.913Z,5.63
2018-11-04T09:42:11.890Z,5.71
2018-11-04T09:43:11.880Z,5.83
2018-11-04T09:44:11.871Z,5.77
2018-11-04T09:45:11.873Z,5.82
2018-11-04T09:46:11.845Z,5.78
2018-11-04T09:47:11.835Z,5.71
2018-11-04T09:48:11.834Z,5.81
2018-11-04T09:49:11.814Z,5.88
2018-11-04T09:50:11.829Z,5.83
2018-11-04T09:51:11.794Z,5.89
2018-11-04T09:52:11.800Z,5.88
2018-11-04T09:53:11.771Z,5.93
2018-11-04T09:54:11.766Z,5.98
2018-11-04T09:55:11.751Z,5.95
2018-11-04T09:56:11.748Z,5.95
2018-11-04T09:57:11.726Z,6.01
2018-11-04T09:58:11.722Z,6.07
2018-11-04T09:59:11.707Z,6.13
2018-11-04T10:00:11.698Z,6.14
2018-11-04T10:01:11.705Z,6.16
2018-11-04T10:02:11.687Z,6.10
2018-11-04T10:03:11.665Z,6.19
2018-11-04T10:04:11.656Z,6.18
2018-11-04T10:05:11.645Z,6.28
2018-11-04T10:06:11.645Z,6.29
2018-11-04T10:07:11.727Z,6.35
2018-11-04T10:08:11.615Z,6.36
2018-11-04T10:09:11.602Z,6.29
2018-11-04T10:10:11.590Z,6.32
2018-11-04T10:11:11.590Z,6.30
2018-11-04T10:12:11.584Z,6.33
2018-11-04T10:13:11.598Z,6.40
2018-11-04T10:14:11.547Z,6.41
2018-11-04T10:15:11.539Z,6.41
2018-11-04T10:16:11.556Z,6.48
2018-11-04T10:17:11.531Z,6.51
2018-11-04T10:18:11.520Z,6.44
2018-11-04T10:19:11.707Z,6.48
2018-11-04T10:20:11.625Z,6.62
2018-11-04T10:21:11.854Z,6.59
2018-11-04T10:22:11.461Z,6.62
2018-11-04T10:23:11.467Z,6.61
2018-11-04T10:24:11.443Z,6.56
2018-11-04T10:25:11.432Z,6.59
2018-11-04T10:26:11.420Z,6.58
2018-11-04T10:27:11.408Z,6.68
2018-11-04T10:28:11.420Z,6.68
2018-11-04T10:29:11.385Z,6.73
2018-11-04T10:30:11.411Z,6.77
2018-11-04T10:31:11.369Z,6.77
2018-11-04T10:32:11.357Z,6.83
2018-11-04T10:33:11.357Z,6.86
2018-11-04T10:34:11.333Z,6.76
2018-11-04T10:35:11.324Z,6.91
2018-11-04T10:36:11.346Z,6.87
2018-11-04T10:37:11.392Z,6.91
2018-11-04T10:38:11.304Z,6.97
2018-11-04T10:39:11.282Z,6.90
2018-11-04T10:40:11.270Z,6.95
2018-11-04T10:41:11.268Z,6.98
2018-11-04T10:42:11.272Z,6.99
2018-11-04T10:43:11.277Z,7.05
2018-11-04T10:44:11.226Z,7.01
2018-11-04T10:45:11.253Z,7.02
2018-11-04T10:46:11.206Z,7.09
2018-11-04T10:47:11.198Z,7.15
2018-11-04T10:48:11.187Z,7.13
2018-11-04T10:49:11.234Z,7.15
2018-11-04T10:50:11.199Z,7.20
2018-11-04T10:51:11.154Z,7.16
2018-11-04T10:52:11.170Z,7.24
2018-11-04T10:53:11.132Z,7.17
2018-11-04T10:54:11.135Z,7.31
2018-11-04T10:55:11.116Z,7.32
2018-11-04T10:56:11.100Z,7.32
2018-11-04T10:57:11.094Z,7.40
2018-11-04T10:58:11.078Z,7.37
2018-11-04T10:59:11.082Z,7.47
2018-11-04T11:00:11.058Z,7.40
2018-11-04T11:01:11.047Z,7.45
2018-11-04T11:02:11.040Z,7.49
2018-11-04T11:03:11.027Z,7.53
2018-11-04T11:04:11.032Z,7.59
2018-11-04T11:05:11.029Z,7.55
2018-11-04T11:06:10.996Z,7.59
2018-11-04T11:07:10.982Z,7.58
2018-11-04T11:08:10.973Z,7.66
2018-11-04T11:09:10.962Z,7.66
2018-11-04T11:10:10.950Z,7.69
2018-11-04T11:11:11.036Z,7.71
2018-11-04T11:12:10.933Z,7.69
2018-11-04T11:13:10.919Z,7.82
2018-11-04T11:14:10.917Z,7.79
2018-11-04T11:15:10.911Z,7.79
2018-11-04T11:16:10.888Z,7.85
2018-11-04T11:17:10.879Z,7.94
2018-11-04T11:18:10.864Z,7.94
2018-11-04T11:19:10.856Z,7.92
2018-11-04T11:20:10.856Z,7.87
2018-11-04T11:21:10.844Z,7.94
2018-11-04T11:22:10.829Z,7.96
2018-11-04T11:23:10.855Z,7.92
2018-11-04T11:24:10.802Z,7.94
2018-11-04T11:25:10.793Z,8.04
2018-11-04T11:26:10.792Z,8.02
2018-11-04T11:27:10.769Z,8.03
2018-11-04T11:28:10.761Z,8.10
2018-11-04T11:29:10.747Z,8.07
2018-11-04T11:30:10.793Z,8.10
2018-11-04T11:31:11.029Z,8.15
2018-11-04T11:32:10.730Z,8.12
2018-11-04T11:33:10.707Z,8.21
2018-11-04T11:34:10.693Z,8.20
2018-11-04T11:35:10.683Z,8.15
2018-11-04T11:36:10.694Z,8.17
2018-11-04T11:37:10.678Z,8.25
2018-11-04T11:38:10.657Z,8.26
2018-11-04T11:39:10.646Z,8.20
2018-11-04T11:40:10.633Z,8.26
2018-11-04T11:41:10.620Z,8.26
2018-11-04T11:42:10.622Z,8.22
2018-11-04T11:43:10.597Z,8.36
2018-11-04T11:44:10.586Z,8.36
2018-11-04T11:45:10.575Z,8.36
2018-11-04T11:46:10.564Z,8.35
2018-11-04T11:47:10.578Z,8.51
2018-11-04T11:48:10.544Z,8.53
2018-11-04T11:49:10.533Z,8.47
2018-11-04T11:50:10.524Z,8.54
2018-11-04T11:51:10.512Z,8.48
2018-11-04T11:52:10.511Z,8.50
2018-11-04T11:53:10.490Z,8.54
2018-11-04T11:54:10.478Z,8.62
2018-11-04T11:55:10.468Z,8.60
2018-11-04T11:56:10.460Z,8.53
2018-11-04T11:57:10.478Z,8.58
2018-11-04T11:58:10.437Z,8.68
2018-11-04T11:59:10.443Z,8.62
2018-11-04T12:00:10.413Z,8.65
2018-11-04T12:01:10.405Z,8.58
2018-11-04T12:02:10.475Z,8.71
2018-11-04T12:03:10.387Z,8.71
2018-11-04T12:04:10.373Z,8.75
2018-11-04T12:05:10.363Z,8.71
2018-11-04T12:06:10.350Z,8.72
2018-11-04T12:07:10.339Z,8.81
2018-11-04T12:08:10.525Z,8.73
2018-11-04T12:09:10.316Z,8.76
2018-11-04T12:10:10.309Z,8.78
2018-11-04T12:11:10.297Z,8.88
2018-11-04T12:12:10.283Z,8.79
2018-11-04T12:13:10.299Z,8.84
2018-11-04T12:14:10.265Z,8.87
2018-11-04T12:15:10.254Z,8.86
2018-11-04T12:16:10.243Z,8.88
2018-11-04T12:17:10.230Z,8.90
2018-11-04T12:18:10.228Z,8.90
2018-11-04T12:19:10.222Z,8.94
2018-11-04T12:20:10.198Z,8.96
2018-11-04T12:21:10.190Z,8.94
2018-11-04T12:22:10.180Z,8.97
2018-11-04T12:23:10.164Z,8.97
2018-11-04T12:24:10.168Z,9.04
2018-11-04T12:25:10.144Z,9.02
2018-11-04T12:26:10.140Z,9.01
2018-11-04T12:27:10.124Z,9.10
2018-11-04T12:28:10.113Z,9.06
2018-11-04T12:29:10.116Z,9.06
2018-11-04T12:30:10.092Z,9.18
2018-11-04T12:31:10.087Z,9.12
2018-11-04T12:32:10.081Z,9.15
2018-11-04T12:33:10.062Z,9.21
2018-11-04T12:34:10.061Z,9.21
2018-11-04T12:35:10.106Z,9.28
2018-11-04T12:36:10.027Z,9.20
2018-11-04T12:37:10.021Z,9.25
2018-11-04T12:38:10.014Z,9.28
2018-11-04T12:39:10.013Z,9.25
2018-11-04T12:40:09.987Z,9.23
2018-11-04T12:41:09.981Z,9.25
2018-11-04T12:42:09.964Z,9.28
2018-11-04T12:43:09.961Z,9.25
2018-11-04T12:44:09.956Z,9.32
2018-11-04T12:45:09.939Z,9.24
2018-11-04T12:46:09.934Z,9.30
2018-11-04T12:47:09.911Z,9.30
2018-11-04T12:48:09.903Z,9.35
2018-11-04T12:49:09.909Z,9.46
2018-11-04T12:50:09.895Z,9.34
2018-11-04T12:51:09.869Z,9.31
2018-11-04T12:52:09.917Z,9.31
2018-11-04T12:53:09.860Z,9.39
2018-11-04T12:54:09.837Z,9.39
2018-11-04T12:55:09.849Z,9.46
2018-11-04T12:56:09.819Z,9.46
2018-11-04T12:57:09.801Z,9.42
2018-11-04T12:58:09.794Z,9.49
2018-11-04T12:59:09.788Z,9.45
2018-11-04T13:00:09.770Z,9.46
2018-11-04T13:01:09.773Z,9.53
2018-11-04T13:02:09.848Z,9.43
2018-11-04T13:03:09.741Z,9.49
2018-11-04T13:04:09.729Z,9.58
2018-11-04T13:05:10.035Z,9.46
2018-11-04T13:06:09.704Z,9.53
2018-11-04T13:07:09.705Z,9.61
2018-11-04T13:08:09.685Z,9.58
2018-11-04T13:09:09.677Z,9.63
2018-11-04T13:10:09.722Z,9.61
2018-11-04T13:11:09.664Z,9.52
2018-11-04T13:12:09.641Z,9.67
2018-11-04T13:13:09.629Z,9.57
2018-11-04T13:14:09.624Z,9.56
2018-11-04T13:15:09.609Z,9.56
2018-11-04T13:16:09.612Z,9.60
2018-11-04T13:17:09.588Z,9.60
2018-11-04T13:18:09.578Z,9.64